Terminal Aerodrome Forecast
Issued by NWS Indianapolis, IN

Home | Current Version | Previous Version | Text Only | Print | Product List | Glossary On
Versions: 1 2 3 4 5 6 7 8 9 10 11 12 13 14 15 16 17 18 19 20 21 22 23 24 25 26 27 28 29 30 31 32 33 34
310
FTUS43 KIND 212325
TAFIND
TAF
KIND 212325Z 2200/2306 19005KT P6SM FEW050 SCT200
     FM220700 VRB03KT 5SM BR BKN110
     FM221100 07004KT 2SM BR BKN035
     FM221300 07004KT 3SM BR VCSH OVC035
     FM221800 06008KT 4SM -SHRA BR OVC030
     FM222200 04009KT 3SM -SHRA BR OVC015
     FM230000 02009KT 3SM BR OVC020
     FM230300 01011G20KT 3SM BR OVC008=

USA.gov is the U.S. government's official web portal to all federal, state and local government web resources and services.